HTDA/DAR METAR and TAF weather

Enter ICAO airport designator
Station Type Date Time Source
HTDA METAR 2019/04/25 15:00 UTC NOAA

HTDA 251500Z 12006KT 9999 FEW023 31/25 Q1008 NOSIG


Station Type Date Time Source
HTDA Decoded METAR 2019/04/25 15:00 UTC NOAA

Dar Es Salaam Airport, Tanzania (HTDA) 06-52S 039-12E 55M
Apr 25, 2019 - 11:00 AM EDT / 2019.04.25 1500 UTC
Wind: from the ESE (120 degrees) at 7 MPH (6 KT):0
Visibility: greater than 7 mile(s):0
Sky conditions: mostly clear
Temperature: 87 F (31 C)
Heat index: 97.5 F (36.4 C):1
Dew Point: 77 F (25 C)
Relative Humidity: 70%
Pressure (altimeter): 29.77 in. Hg (1008 hPa)
ob: HTDA 251500Z 12006KT 9999 FEW023 31/25 Q1008 NOSIG
cycle: 15

Station Type Date Time Source
HTDA TAF 2019/04/25 06:19 UTC NOAA

TAF HTDA 250500Z 2506/2612 20010KT 9999 BKN017 FEW018CB
BECMG 2513/2516 SCT025 FEW026CB

Example: see airport list